x

Pensacola - 115nm Ese Of Pensacola, Fl (42039) Wave Buoy

6:50pm - Thu 30th Jun 2016 All times are CDT. -5 hours from GMT.

  • Sig Wave height 2.0ft
  • Swell Direction
  • Peak Period 6s
  • Average Period 4s
  • Wind
    7mph, 9mph gusts
  • Sea Temp 84°f
  • Air Temp 80°f
  • Sea Pressure 1014.8mb
  • Pensacola - 115nm Ese Of Pensacola, Fl
  • Pensacola - 115nm Ese Of Pensacola, Fl

More Historic Weather Station data

Upgrade to MSW Pro to gain access to the past 30 days of data for over 8000 Wavebouys and Weather Stations around the globe.

Join Pro

Comparision Forecast

View Surf forecast
   
Thu 06/30 6:50pm 2ft 6s 4s 7 9 mph 1014.8mb 84f 80f
5:50pm 1.6ft 4s 4s 7 9 mph 1014.7mb 84f 80f
4:50pm 1.6ft 4s 4s 4
mph
1015mb 84f 79f
3:50pm 2ft 5s 4s 7 9 mph 1015.7mb 84f 79f
2:50pm 2.5ft 5s 4s 7 9 mph 1015.6mb 84f 78f
1:50pm 3ft 5s 4s 9 11 mph 1016.1mb 84f 78f
12:50pm 3.5ft 5s 4s 11 13 mph 1016.6mb 84f 78f
11:50am 3.5ft 4s 4s 27 34 mph 1016.1mb 84f 78f
10:50am 2.5ft 4s 4s 16 20 mph 1016mb 84f 82f
9:50am 2ft 4s 3s 25 31 mph 1015.5mb 84f 78f
8:50am 2ft 4s 3s 13 18 mph 1015.1mb 84f 83f
7:50am 1.6ft 4s 3s 13 16 mph 1014.7mb 84f 83f
6:50am 1.6ft 3s 3s 13 18 mph 1014.5mb 84f 81f
5:50am 1.3ft 3s 3s 13 18 mph 1014mb 84f 83f
4:50am 1.3ft 3s 3s 13 16 mph 1013.7mb 84f 83f
3:50am 1ft 3s 3s 11 13 mph 1013.8mb 84f 83f
2:50am 1ft 4s 3s 11
mph
1013.9mb 84f 83f
1:50am 1ft 4s 3s 11 13 mph 1014.3mb 84f 83f
12:50am 1ft 3s 3s 11 13 mph 1014.7mb 84f 82f
Wed 06/29 11:50pm 1ft 3s 3s 11
mph
1015.1mb 84f 83f
10:50pm 1ft 3s 3s 4 7 mph 1015.7mb 85f 83f
9:50pm 1ft 3s 3s 4 7 mph 1015.8mb 85f 83f
8:50pm 1.3ft 3s 3s 4 7 mph 1015.3mb 85f 82f
7:50pm 1ft 4s 3s 4 7 mph 1014.8mb 85f 82f
6:50pm 1ft 3s 3s 4 7 mph 1014.8mb 85f 82f
5:50pm 1ft 3s 3s 11 13 mph 1014.1mb 85f 82f
4:50pm 1ft 3s 3s 9 11 mph 1014.3mb 85f 84f
3:50pm 1ft 3s 3s 9 11 mph 1014.7mb 85f 84f
2:50pm 1ft 3s 3s 9 11 mph 1014.8mb 85f 83f
1:50pm 1ft 3s 3s 9 11 mph 1015mb 85f 83f
12:50pm 1.3ft 4s 3s 11 13 mph 1015.4mb 85f 83f
11:50am 1ft 4s 3s 9 11 mph 1015.9mb 85f 83f
10:50am 1ft 3s 3s 9 11 mph 1015.8mb 84f 83f
9:50am 1ft 3s 3s 9 11 mph 1015.9mb 84f 83f
8:50am 1ft 3s 3s 9 11 mph 1015.7mb 84f 82f
7:50am 1ft 3s 3s 9 11 mph 1015.3mb 84f 83f
6:50am 1ft 3s 3s 9
mph
1014.9mb 84f 82f
5:50am 1ft 3s 3s 9
mph
1014.3mb 84f 82f
4:50am 1ft 3s 3s 9 11 mph 1014.1mb 84f 82f
3:50am 1ft 3s 3s 9 11 mph 1014.2mb 84f 82f
2:50am 1ft 3s 3s 11 13 mph 1014.3mb 84f 82f
1:50am 1ft 3s 3s 9 11 mph 1014.4mb 84f 83f
12:50am 1ft 3s 3s 9 11 mph 1015.1mb 84f 83f
Tue 06/28 11:50pm 0.7ft  -  3s 7 9 mph 1015.5mb 84f 83f
10:50pm 1ft 3s 3s 7 9 mph 1015.5mb 84f 83f
9:50pm 1ft 3s 3s 7 9 mph 1015.5mb 85f 83f
8:50pm 1ft 3s 3s 7 9 mph 1015.4mb 85f 83f
7:50pm 1ft 3s 3s 11 13 mph 1014.9mb 85f 83f
6:50pm 1ft 6s 3s 11 13 mph 1014.4mb 85f 84f
5:50pm 0.7ft  -  3s 11 13 mph 1014.1mb 85f 83f
4:50pm 0.7ft  -  4s 11 13 mph 1014.3mb 85f 83f
3:50pm 0.7ft  -  4s 7 9 mph 1014.6mb 86f 83f
2:50pm 0.7ft  -  4s 4 7 mph 1015.4mb 86f 83f
1:50pm 0.7ft  -  4s 4
mph
1016.5mb 86f 83f
12:50pm 0.7ft  -  4s 4 7 mph 1016.9mb 86f 83f
11:50am 0.7ft  -  4s 4 7 mph 1017.1mb 85f 83f
10:50am 0.7ft  -  4s 4 7 mph 1017.5mb 85f 83f
9:50am 0.7ft  -  4s 2 4 mph 1017.3mb 84f 82f
8:50am 0.7ft  -  4s 4
mph
1016.9mb 83f 82f
7:50am 0.7ft  -  4s 7
mph
1016.4mb 83f 82f
6:50am 0.7ft  -  4s 7 9 mph 1016.2mb 83f 82f
5:50am 0.7ft  -  4s 7 9 mph 1015.9mb 83f 82f
4:50am 0.7ft  -  4s 7
mph
1015.7mb 83f 81f
3:50am 0.7ft  -  4s 4 7 mph 1015.8mb 83f 82f
2:50am 0.7ft  -  4s 4 7 mph 1015.7mb 83f 81f
1:50am 0.7ft  -  4s 4 7 mph 1016.8mb 84f 82f
12:50am 0.7ft  -  4s 2
mph
1016.9mb 83f 82f
Mon 06/27 11:50pm 0.7ft  -  4s  -  2 mph 1017.5mb 84f 82f
10:50pm 0.7ft  -  4s 7 9 mph 1017.6mb 84f 82f
9:50pm 0.7ft  -  4s 7 9 mph 1017.5mb 84f 82f
8:50pm 0.7ft  -  4s 7 9 mph 1017mb 84f 82f
7:50pm 1ft 4s 4s 9
mph
1016.2mb 84f 82f
6:50pm 1ft 4s 4s 7
mph
1015.7mb 85f 82f
5:50pm 1ft 3s 4s 4 7 mph 1015.2mb 85f 82f
4:50pm 1.3ft 4s 4s 4 7 mph 1015.8mb 85f 82f
3:50pm 1ft 4s 3s 4 7 mph 1016.5mb 84f 81f
2:50pm 1.6ft 4s 4s 7 9 mph 1017.7mb 84f 81f
1:50pm 1.6ft 3s 3s 13 16 mph 1018.5mb 84f 81f
12:50pm 1.3ft 3s 3s 18 20 mph 1019mb 84f 79f
11:50am 1ft 3s 3s 11 13 mph 1019.6mb 84f 82f
10:50am 1ft 4s 3s 7 9 mph 1019.8mb 84f 82f
9:50am 1ft 3s 3s 4 7 mph 1019.2mb 84f 81f
8:50am 1ft 3s 3s 11 13 mph 1019mb 84f 80f
7:50am 1ft 4s 4s 13 16 mph 1019.4mb 84f 81f
6:50am 0.7ft  -  4s 4
mph
1019mb 84f 83f
5:50am 0.7ft  -  4s 4 7 mph 1018.3mb 84f 82f
4:50am 0.7ft  -  4s 4
mph
1018mb 84f 83f
3:50am 0.7ft  -  4s 2 4 mph 1018.3mb 84f 83f
2:50am 0.7ft  -  4s 4
mph
1017.8mb 84f 83f
1:50am 1ft 5s 4s 4 7 mph 1017.8mb 83f 83f